sensor_id;sensor_type;location;lat;lon;timestamp;pressure;altitude;pressure_sealevel;temperature;humidity
71424;BME280;59240;51.370;-0.486;2023-04-01T00:02:26;99781.41;;;10.70;100.00
71424;BME280;59240;51.370;-0.486;2023-04-01T00:04:53;99797.94;;;10.69;100.00
71424;BME280;59240;51.370;-0.486;2023-04-01T00:07:20;99800.53;;;10.69;100.00
71424;BME280;59240;51.370;-0.486;2023-04-01T00:09:46;99805.75;;;10.69;100.00
71424;BME280;59240;51.370;-0.486;2023-04-01T00:12:13;99811.88;;;10.68;100.00
71424;BME280;59240;51.370;-0.486;2023-04-01T00:14:40;99806.66;;;10.68;100.00
71424;BME280;59240;51.370;-0.486;2023-04-01T00:17:06;99801.69;;;10.62;100.00
71424;BME280;59240;51.370;-0.486;2023-04-01T00:19:33;99811.88;;;10.68;100.00
71424;BME280;59240;51.370;-0.486;2023-04-01T00:22:00;99831.00;;;10.67;100.00
71424;BME280;59240;51.370;-0.486;2023-04-01T00:24:27;99824.13;;;10.66;100.00
71424;BME280;59240;51.370;-0.486;2023-04-01T00:26:54;99820.94;;;10.58;100.00
71424;BME280;59240;51.370;-0.486;2023-04-01T00:29:21;99836.22;;;10.67;100.00
71424;BME280;59240;51.370;-0.486;2023-04-01T00:31:47;99841.56;;;10.64;100.00
71424;BME280;59240;51.370;-0.486;2023-04-01T00:34:15;99849.19;;;10.68;100.00
71424;BME280;59240;51.370;-0.486;2023-04-01T00:36:42;99846.78;;;10.64;100.00
71424;BME280;59240;51.370;-0.486;2023-04-01T00:39:08;99843.47;;;10.59;100.00
71424;BME280;59240;51.370;-0.486;2023-04-01T00:41:35;99849.53;;;10.59;100.00
71424;BME280;59240;51.370;-0.486;2023-04-01T00:44:23;99872.69;;;10.67;100.00
71424;BME280;59240;51.370;-0.486;2023-04-01T00:46:50;99854.00;;;10.56;100.00
71424;BME280;59240;51.370;-0.486;2023-04-01T00:49:23;99842.84;;;10.52;100.00
71424;BME280;59240;51.370;-0.486;2023-04-01T00:51:53;99857.41;;;10.58;100.00
71424;BME280;59240;51.370;-0.486;2023-04-01T00:54:24;99882.25;;;10.66;100.00
71424;BME280;59240;51.370;-0.486;2023-04-01T00:56:54;99847.09;;;10.55;100.00
71424;BME280;59240;51.370;-0.486;2023-04-01T00:59:25;99854.13;;;10.53;100.00
71424;BME280;59240;51.370;-0.486;2023-04-01T01:01:53;99861.16;;;10.51;100.00
71424;BME280;59240;51.370;-0.486;2023-04-01T01:04:30;99872.22;;;10.56;100.00
71424;BME280;59240;51.370;-0.486;2023-04-01T01:15:44;99897.03;;;10.66;100.00
71424;BME280;59240;51.370;-0.486;2023-04-01T01:18:27;99894.44;;;10.66;100.00
71424;BME280;59240;51.370;-0.486;2023-04-01T01:21:13;99888.31;;;10.67;100.00
71424;BME280;59240;51.370;-0.486;2023-04-01T01:37:57;99915.38;;;10.63;100.00
71424;BME280;59240;51.370;-0.486;2023-04-01T01:40:27;99912.88;;;10.60;100.00
71424;BME280;59240;51.370;-0.486;2023-04-01T01:42:59;99923.19;;;10.63;100.00
71424;BME280;59240;51.370;-0.486;2023-04-01T01:45:27;99895.03;;;10.49;100.00
71424;BME280;59240;51.370;-0.486;2023-04-01T01:47:56;99910.63;;;10.51;100.00
71424;BME280;59240;51.370;-0.486;2023-04-01T01:50:25;99904.72;;;10.46;100.00
71424;BME280;59240;51.370;-0.486;2023-04-01T01:53:04;99921.03;;;10.51;100.00
71424;BME280;59240;51.370;-0.486;2023-04-01T01:55:37;99933.78;;;10.58;100.00
71424;BME280;59240;51.370;-0.486;2023-04-01T01:58:17;99945.84;;;10.61;100.00
71424;BME280;59240;51.370;-0.486;2023-04-01T02:00:53;99933.84;;;10.57;100.00
71424;BME280;59240;51.370;-0.486;2023-04-01T02:03:23;99929.69;;;10.51;100.00
71424;BME280;59240;51.370;-0.486;2023-04-01T02:05:55;99922.88;;;10.47;100.00
71424;BME280;59240;51.370;-0.486;2023-04-01T02:08:28;99942.38;;;10.60;100.00
71424;BME280;59240;51.370;-0.486;2023-04-01T02:11:03;99928.94;;;10.48;100.00
71424;BME280;59240;51.370;-0.486;2023-04-01T02:13:42;99952.88;;;10.59;100.00
71424;BME280;59240;51.370;-0.486;2023-04-01T02:16:19;99940.13;;;10.51;100.00
71424;BME280;59240;51.370;-0.486;2023-04-01T02:18:49;99959.00;;;10.56;100.00
71424;BME280;59240;51.370;-0.486;2023-04-01T02:21:20;99947.22;;;10.46;100.00
71424;BME280;59240;51.370;-0.486;2023-04-01T02:23:49;99960.19;;;10.48;100.00
71424;BME280;59240;51.370;-0.486;2023-04-01T02:26:16;99949.06;;;10.43;100.00
71424;BME280;59240;51.370;-0.486;2023-04-01T02:28:45;99954.97;;;10.48;100.00
71424;BME280;59240;51.370;-0.486;2023-04-01T02:31:14;99960.31;;;10.45;100.00
71424;BME280;59240;51.370;-0.486;2023-04-01T02:33:41;99974.00;;;10.50;100.00
71424;BME280;59240;51.370;-0.486;2023-04-01T02:36:12;99965.59;;;10.41;100.00
71424;BME280;59240;51.370;-0.486;2023-04-01T02:38:40;99958.13;;;10.32;100.00
71424;BME280;59240;51.370;-0.486;2023-04-01T02:41:07;99955.59;;;10.29;100.00
71424;BME280;59240;51.370;-0.486;2023-04-01T02:43:33;99963.31;;;10.32;100.00
71424;BME280;59240;51.370;-0.486;2023-04-01T02:46:00;99962.63;;;10.27;100.00
71424;BME280;59240;51.370;-0.486;2023-04-01T02:48:28;99963.53;;;10.26;100.00
71424;BME280;59240;51.370;-0.486;2023-04-01T02:50:55;99966.25;;;10.23;100.00
71424;BME280;59240;51.370;-0.486;2023-04-01T02:53:22;99976.44;;;10.29;100.00
71424;BME280;59240;51.370;-0.486;2023-04-01T02:55:49;99988.38;;;10.36;100.00
71424;BME280;59240;51.370;-0.486;2023-04-01T02:58:18;99989.31;;;10.34;100.00
71424;BME280;59240;51.370;-0.486;2023-04-01T03:00:45;99988.56;;;10.30;100.00
71424;BME280;59240;51.370;-0.486;2023-04-01T03:03:13;99973.25;;;10.20;100.00
71424;BME280;59240;51.370;-0.486;2023-04-01T03:05:40;99981.75;;;10.26;100.00
71424;BME280;59240;51.370;-0.486;2023-04-01T03:08:07;99983.44;;;10.27;100.00
71424;BME280;59240;51.370;-0.486;2023-04-01T03:10:34;99980.09;;;10.22;100.00
71424;BME280;59240;51.370;-0.486;2023-04-01T03:13:01;99976.66;;;10.23;100.00
71424;BME280;59240;51.370;-0.486;2023-04-01T03:15:27;100001.38;;;10.36;100.00
71424;BME280;59240;51.370;-0.486;2023-04-01T03:17:54;100002.47;;;10.29;100.00
71424;BME280;59240;51.370;-0.486;2023-04-01T03:20:21;100007.47;;;10.35;100.00
71424;BME280;59240;51.370;-0.486;2023-04-01T03:22:47;99995.56;;;10.28;100.00
71424;BME280;59240;51.370;-0.486;2023-04-01T03:25:14;99994.56;;;10.32;100.00
71424;BME280;59240;51.370;-0.486;2023-04-01T03:27:41;100006.69;;;10.33;100.00
71424;BME280;59240;51.370;-0.486;2023-04-01T03:30:08;100007.59;;;10.32;100.00
71424;BME280;59240;51.370;-0.486;2023-04-01T03:32:36;100017.94;;;10.34;100.00
71424;BME280;59240;51.370;-0.486;2023-04-01T03:35:03;100000.09;;;10.22;100.00
71424;BME280;59240;51.370;-0.486;2023-04-01T03:37:31;100016.31;;;10.31;100.00
71424;BME280;59240;51.370;-0.486;2023-04-01T03:39:58;100012.19;;;10.24;100.00
71424;BME280;59240;51.370;-0.486;2023-04-01T03:42:24;100009.66;;;10.21;100.00
71424;BME280;59240;51.370;-0.486;2023-04-01T03:44:52;100025.03;;;10.30;100.00
71424;BME280;59240;51.370;-0.486;2023-04-01T03:47:18;100018.38;;;10.20;100.00
71424;BME280;59240;51.370;-0.486;2023-04-01T03:49:45;100009.84;;;10.15;100.00
71424;BME280;59240;51.370;-0.486;2023-04-01T03:52:12;100011.47;;;10.19;100.00
71424;BME280;59240;51.370;-0.486;2023-04-01T03:54:39;100024.47;;;10.19;100.00
71424;BME280;59240;51.370;-0.486;2023-04-01T03:57:05;100026.28;;;10.17;100.00
71424;BME280;59240;51.370;-0.486;2023-04-01T03:59:32;100033.91;;;10.22;100.00
71424;BME280;59240;51.370;-0.486;2023-04-01T04:01:59;100022.84;;;10.15;100.00
71424;BME280;59240;51.370;-0.486;2023-04-01T04:04:26;100034.19;;;10.14;100.00
71424;BME280;59240;51.370;-0.486;2023-04-01T04:06:54;100049.44;;;10.26;100.00
71424;BME280;59240;51.370;-0.486;2023-04-01T04:09:21;100051.31;;;10.23;100.00
71424;BME280;59240;51.370;-0.486;2023-04-01T04:11:49;100042.81;;;10.16;100.00
71424;BME280;59240;51.370;-0.486;2023-04-01T04:14:15;100045.44;;;10.14;100.00
71424;BME280;59240;51.370;-0.486;2023-04-01T04:16:42;100051.41;;;10.18;100.00
71424;BME280;59240;51.370;-0.486;2023-04-01T04:19:09;100050.63;;;10.16;100.00
71424;BME280;59240;51.370;-0.486;2023-04-01T04:21:36;100054.91;;;10.17;100.00
71424;BME280;59240;51.370;-0.486;2023-04-01T04:24:03;100054.06;;;10.17;100.00
71424;BME280;59240;51.370;-0.486;2023-04-01T04:26:29;100066.00;;;10.22;100.00
71424;BME280;59240;51.370;-0.486;2023-04-01T04:28:57;100061.81;;;10.18;100.00
71424;BME280;59240;51.370;-0.486;2023-04-01T04:31:25;100085.88;;;10.26;100.00
71424;BME280;59240;51.370;-0.486;2023-04-01T04:33:52;100073.78;;;10.25;100.00
71424;BME280;59240;51.370;-0.486;2023-04-01T04:36:20;100067.94;;;10.15;100.00
71424;BME280;59240;51.370;-0.486;2023-04-01T04:38:47;100085.09;;;10.24;100.00
71424;BME280;59240;51.370;-0.486;2023-04-01T04:41:16;100091.09;;;10.26;100.00
71424;BME280;59240;51.370;-0.486;2023-04-01T04:43:53;100074.78;;;10.20;100.00
71424;BME280;59240;51.370;-0.486;2023-04-01T04:46:21;100089.38;;;10.25;100.00
71424;BME280;59240;51.370;-0.486;2023-04-01T04:48:47;100080.84;;;10.20;100.00
71424;BME280;59240;51.370;-0.486;2023-04-01T04:51:16;100087.84;;;10.18;100.00
71424;BME280;59240;51.370;-0.486;2023-04-01T04:53:43;100092.25;;;10.16;100.00
71424;BME280;59240;51.370;-0.486;2023-04-01T04:56:10;100094.09;;;10.12;100.00
71424;BME280;59240;51.370;-0.486;2023-04-01T04:58:38;100105.28;;;10.16;100.00
71424;BME280;59240;51.370;-0.486;2023-04-01T05:01:09;100102.94;;;10.07;100.00
71424;BME280;59240;51.370;-0.486;2023-04-01T05:03:36;100108.84;;;10.12;100.00
71424;BME280;59240;51.370;-0.486;2023-04-01T05:06:04;100108.19;;;10.05;100.00
71424;BME280;59240;51.370;-0.486;2023-04-01T05:08:31;100103.94;;;10.03;100.00
71424;BME280;59240;51.370;-0.486;2023-04-01T05:11:00;100119.38;;;10.09;100.00
71424;BME280;59240;51.370;-0.486;2023-04-01T05:13:28;100099.66;;;10.00;100.00
71424;BME280;59240;51.370;-0.486;2023-04-01T05:15:55;100125.44;;;10.08;100.00
71424;BME280;59240;51.370;-0.486;2023-04-01T05:18:21;100116.06;;;10.04;100.00
71424;BME280;59240;51.370;-0.486;2023-04-01T05:20:50;100134.88;;;10.12;100.00
71424;BME280;59240;51.370;-0.486;2023-04-01T05:23:17;100104.19;;;9.94;100.00
71424;BME280;59240;51.370;-0.486;2023-04-01T05:25:44;100114.53;;;9.97;100.00
71424;BME280;59240;51.370;-0.486;2023-04-01T05:28:11;100133.44;;;10.02;100.00
71424;BME280;59240;51.370;-0.486;2023-04-01T05:30:42;100135.25;;;10.00;100.00
71424;BME280;59240;51.370;-0.486;2023-04-01T05:33:10;100146.44;;;10.02;100.00
71424;BME280;59240;51.370;-0.486;2023-04-01T05:35:37;100130.31;;;9.91;100.00
71424;BME280;59240;51.370;-0.486;2023-04-01T05:38:04;100145.81;;;9.94;100.00
71424;BME280;59240;51.370;-0.486;2023-04-01T05:40:34;100154.72;;;9.86;100.00
71424;BME280;59240;51.370;-0.486;2023-04-01T05:43:01;100132.66;;;9.70;100.00
71424;BME280;59240;51.370;-0.486;2023-04-01T05:45:28;100141.34;;;9.69;100.00
71424;BME280;59240;51.370;-0.486;2023-04-01T05:47:54;100155.88;;;9.76;100.00
71424;BME280;59240;51.370;-0.486;2023-04-01T05:50:21;100162.88;;;9.74;100.00
71424;BME280;59240;51.370;-0.486;2023-04-01T05:52:48;100160.47;;;9.68;100.00
71424;BME280;59240;51.370;-0.486;2023-04-01T05:55:15;100162.22;;;9.68;100.00
71424;BME280;59240;51.370;-0.486;2023-04-01T05:57:41;100152.84;;;9.60;100.00
71424;BME280;59240;51.370;-0.486;2023-04-01T06:00:08;100163.28;;;9.59;100.00
71424;BME280;59240;51.370;-0.486;2023-04-01T06:02:35;100171.84;;;9.64;100.00
71424;BME280;59240;51.370;-0.486;2023-04-01T06:05:26;100181.28;;;9.68;100.00
71424;BME280;59240;51.370;-0.486;2023-04-01T06:07:58;100165.16;;;9.55;100.00
71424;BME280;59240;51.370;-0.486;2023-04-01T06:10:53;100176.22;;;9.62;100.00
71424;BME280;59240;51.370;-0.486;2023-04-01T06:16:20;100198.53;;;9.71;100.00
71424;BME280;59240;51.370;-0.486;2023-04-01T06:21:47;100193.44;;;9.66;100.00
71424;BME280;59240;51.370;-0.486;2023-04-01T06:27:04;100214.81;;;9.77;100.00
71424;BME280;59240;51.370;-0.486;2023-04-01T06:29:47;100208.88;;;9.72;100.00
71424;BME280;59240;51.370;-0.486;2023-04-01T06:35:59;100210.34;;;9.82;100.00
71424;BME280;59240;51.370;-0.486;2023-04-01T06:44:16;100224.16;;;9.84;100.00
71424;BME280;59240;51.370;-0.486;2023-04-01T06:49:53;100222.44;;;9.83;100.00
71424;BME280;59240;51.370;-0.486;2023-04-01T06:52:30;100228.28;;;9.92;100.00
71424;BME280;59240;51.370;-0.486;2023-04-01T06:57:44;100228.34;;;9.90;100.00
71424;BME280;59240;51.370;-0.486;2023-04-01T07:05:39;100250.63;;;9.99;100.00
71424;BME280;59240;51.370;-0.486;2023-04-01T07:08:11;100239.66;;;9.87;100.00
71424;BME280;59240;51.370;-0.486;2023-04-01T07:10:47;100244.22;;;9.79;100.00
71424;BME280;59240;51.370;-0.486;2023-04-01T07:13:21;100232.34;;;9.71;100.00
71424;BME280;59240;51.370;-0.486;2023-04-01T07:16:05;100269.22;;;9.85;100.00
71424;BME280;59240;51.370;-0.486;2023-04-01T07:18:44;100274.47;;;9.83;100.00
71424;BME280;59240;51.370;-0.486;2023-04-01T07:23:53;100260.91;;;9.72;100.00
71424;BME280;59240;51.370;-0.486;2023-04-01T07:26:24;100276.19;;;9.84;100.00
71424;BME280;59240;51.370;-0.486;2023-04-01T07:28:52;100263.44;;;9.75;100.00
71424;BME280;59240;51.370;-0.486;2023-04-01T07:34:25;100271.25;;;9.75;100.00
71424;BME280;59240;51.370;-0.486;2023-04-01T07:37:10;100288.22;;;9.89;100.00
71424;BME280;59240;51.370;-0.486;2023-04-01T07:40:01;100299.34;;;9.94;100.00
71424;BME280;59240;51.370;-0.486;2023-04-01T07:45:12;100302.09;;;9.87;100.00
71424;BME280;59240;51.370;-0.486;2023-04-01T07:48:47;100305.59;;;9.86;100.00
71424;BME280;59240;51.370;-0.486;2023-04-01T07:51:17;100314.41;;;9.82;100.00
71424;BME280;59240;51.370;-0.486;2023-04-01T07:56:32;100316.31;;;9.74;100.00
71424;BME280;59240;51.370;-0.486;2023-04-01T07:59:09;100325.88;;;9.75;100.00
71424;BME280;59240;51.370;-0.486;2023-04-01T08:04:55;100314.78;;;9.67;100.00
71424;BME280;59240;51.370;-0.486;2023-04-01T08:07:36;100334.47;;;9.77;100.00
71424;BME280;59240;51.370;-0.486;2023-04-01T08:10:10;100334.47;;;9.77;100.00
71424;BME280;59240;51.370;-0.486;2023-04-01T08:12:58;100337.94;;;9.78;100.00
71424;BME280;59240;51.370;-0.486;2023-04-01T08:18:23;100338.78;;;9.78;100.00
71424;BME280;59240;51.370;-0.486;2023-04-01T08:21:10;100358.50;;;9.87;100.00
71424;BME280;59240;51.370;-0.486;2023-04-01T08:23:47;100349.13;;;9.81;100.00
71424;BME280;59240;51.370;-0.486;2023-04-01T08:26:53;100364.47;;;9.91;100.00
71424;BME280;59240;51.370;-0.486;2023-04-01T08:29:36;100362.84;;;9.86;100.00
71424;BME280;59240;51.370;-0.486;2023-04-01T08:32:10;100380.94;;;9.91;100.00
71424;BME280;59240;51.370;-0.486;2023-04-01T08:34:44;100350.13;;;9.76;100.00
71424;BME280;59240;51.370;-0.486;2023-04-01T08:37:21;100382.59;;;9.95;100.00
71424;BME280;59240;51.370;-0.486;2023-04-01T08:39:55;100379.28;;;9.89;100.00
71424;BME280;59240;51.370;-0.486;2023-04-01T08:51:03;100402.88;;;10.15;100.00
71424;BME280;59240;51.370;-0.486;2023-04-01T08:53:50;100379.91;;;9.98;100.00
71424;BME280;59240;51.370;-0.486;2023-04-01T08:56:18;100408.22;;;10.10;100.00
71424;BME280;59240;51.370;-0.486;2023-04-01T09:01:33;100414.22;;;10.12;100.00
71424;BME280;59240;51.370;-0.486;2023-04-01T09:12:57;100425.47;;;10.13;100.00
71424;BME280;59240;51.370;-0.486;2023-04-01T09:16:15;100416.06;;;10.09;100.00
71424;BME280;59240;51.370;-0.486;2023-04-01T09:23:47;100436.53;;;10.24;100.00
71424;BME280;59240;51.370;-0.486;2023-04-01T09:47:14;100457.34;;;10.24;100.00
71424;BME280;59240;51.370;-0.486;2023-04-01T09:58:45;100472.88;;;10.27;100.00
71424;BME280;59240;51.370;-0.486;2023-04-01T10:06:47;100481.81;;;10.51;100.00
71424;BME280;59240;51.370;-0.486;2023-04-01T10:30:40;100518.56;;;11.04;100.00
71424;BME280;59240;51.370;-0.486;2023-04-01T11:07:56;100554.03;;;11.10;100.00
71424;BME280;59240;51.370;-0.486;2023-04-01T11:10:54;100556.41;;;11.19;100.00
71424;BME280;59240;51.370;-0.486;2023-04-01T11:13:47;100552.06;;;11.18;100.00
71424;BME280;59240;51.370;-0.486;2023-04-01T11:16:59;100565.56;;;11.32;100.00
71424;BME280;59240;51.370;-0.486;2023-04-01T11:31:46;100576.28;;;11.52;100.00
71424;BME280;59240;51.370;-0.486;2023-04-01T11:34:43;100568.38;;;11.56;100.00
71424;BME280;59240;51.370;-0.486;2023-04-01T11:37:29;100584.81;;;11.89;100.00
71424;BME280;59240;51.370;-0.486;2023-04-01T11:43:12;100588.94;;;12.24;100.00
71424;BME280;59240;51.370;-0.486;2023-04-01T11:46:15;100597.56;;;12.26;100.00
71424;BME280;59240;51.370;-0.486;2023-04-01T11:48:54;100602.78;;;12.26;100.00
71424;BME280;59240;51.370;-0.486;2023-04-01T11:57:12;100613.16;;;12.29;100.00
71424;BME280;59240;51.370;-0.486;2023-04-01T12:10:40;100617.13;;;12.41;100.00
71424;BME280;59240;51.370;-0.486;2023-04-01T12:14:25;100625.81;;;12.68;100.00
71424;BME280;59240;51.370;-0.486;2023-04-01T12:16:49;100625.22;;;12.86;100.00
71424;BME280;59240;51.370;-0.486;2023-04-01T12:19:41;100637.25;;;12.90;100.00
71424;BME280;59240;51.370;-0.486;2023-04-01T12:37:06;100641.63;;;12.90;100.00
71424;BME280;59240;51.370;-0.486;2023-04-01T12:50:35;100674.38;;;12.75;100.00
71424;BME280;59240;51.370;-0.486;2023-04-01T13:02:35;100688.56;;;12.94;100.00
71424;BME280;59240;51.370;-0.486;2023-04-01T13:16:29;100650.19;;;12.70;100.00
71424;BME280;59240;51.370;-0.486;2023-04-01T13:19:07;100673.13;;;12.86;100.00
71424;BME280;59240;51.370;-0.486;2023-04-01T13:24:39;100694.69;;;12.93;100.00
71424;BME280;59240;51.370;-0.486;2023-04-01T13:27:25;100698.41;;;12.86;100.00
71424;BME280;59240;51.370;-0.486;2023-04-01T13:41:56;100746.06;;;12.68;100.00
71424;BME280;59240;51.370;-0.486;2023-04-01T13:58:10;100760.38;;;12.56;100.00
71424;BME280;59240;51.370;-0.486;2023-04-01T14:01:04;100773.81;;;12.44;100.00
71424;BME280;59240;51.370;-0.486;2023-04-01T14:12:27;100740.09;;;11.74;100.00
71424;BME280;59240;51.370;-0.486;2023-04-01T14:15:17;100724.09;;;11.54;100.00
71424;BME280;59240;51.370;-0.486;2023-04-01T14:38:12;100841.16;;;12.32;100.00
71424;BME280;59240;51.370;-0.486;2023-04-01T14:41:24;100830.16;;;12.21;100.00
71424;BME280;59240;51.370;-0.486;2023-04-01T14:46:55;100853.97;;;12.11;
71424;BME280;59240;51.370;-0.486;2023-04-01T14:49:49;100829.81;;;12.02;100.00
71424;BME280;59240;51.370;-0.486;2023-04-01T14:52:33;100796.53;;;11.76;100.00
71424;BME280;59240;51.370;-0.486;2023-04-01T14:55:27;100820.72;;;11.85;100.00
71424;BME280;59240;51.370;-0.486;2023-04-01T14:58:11;100849.22;;;11.92;100.00
71424;BME280;59240;51.370;-0.486;2023-04-01T15:09:11;100867.22;;;11.69;100.00
71424;BME280;59240;51.370;-0.486;2023-04-01T15:28:28;100869.44;;;11.11;100.00
71424;BME280;59240;51.370;-0.486;2023-04-01T15:31:36;100877.31;;;11.10;100.00
71424;BME280;59240;51.370;-0.486;2023-04-01T15:34:26;100925.56;;;11.29;100.00
71424;BME280;59240;51.370;-0.486;2023-04-01T15:37:15;100923.94;;;11.23;100.00
71424;BME280;59240;51.370;-0.486;2023-04-01T15:39:56;100877.75;;;10.91;100.00
71424;BME280;59240;51.370;-0.486;2023-04-01T15:42:41;100871.81;;;10.83;100.00
71424;BME280;59240;51.370;-0.486;2023-04-01T15:50:54;100883.31;;;10.73;100.00
71424;BME280;59240;51.370;-0.486;2023-04-01T15:53:37;100930.75;;;10.89;100.00
71424;BME280;59240;51.370;-0.486;2023-04-01T15:59:04;100945.38;;;10.96;100.00
71424;BME280;59240;51.370;-0.486;2023-04-01T16:01:51;100937.03;;;10.80;100.00
71424;BME280;59240;51.370;-0.486;2023-04-01T16:18:32;100989.28;;;10.74;100.00
71424;BME280;59240;51.370;-0.486;2023-04-01T16:24:00;100974.16;;;10.47;100.00
71424;BME280;59240;51.370;-0.486;2023-04-01T16:26:50;100966.63;;;10.31;100.00
71424;BME280;59240;51.370;-0.486;2023-04-01T16:29:21;101015.66;;;10.56;100.00
71424;BME280;59240;51.370;-0.486;2023-04-01T16:38:40;101036.84;;;10.37;100.00
71424;BME280;59240;51.370;-0.486;2023-04-01T16:41:36;100951.81;;;9.82;100.00
71424;BME280;59240;51.370;-0.486;2023-04-01T16:44:24;101045.63;;;10.30;100.00
71424;BME280;59240;51.370;-0.486;2023-04-01T16:47:36;100998.50;;;9.92;100.00
71424;BME280;59240;51.370;-0.486;2023-04-01T16:53:45;100976.19;;;9.77;100.00
71424;BME280;59240;51.370;-0.486;2023-04-01T16:56:56;101062.25;;;10.23;100.00
71424;BME280;59240;51.370;-0.486;2023-04-01T17:02:28;100989.31;;;9.69;99.43
71424;BME280;59240;51.370;-0.486;2023-04-01T17:05:09;101053.00;;;10.01;100.00
71424;BME280;59240;51.370;-0.486;2023-04-01T17:11:43;101050.66;;;9.84;100.00
71424;BME280;59240;51.370;-0.486;2023-04-01T17:15:11;101097.97;;;10.12;100.00
71424;BME280;59240;51.370;-0.486;2023-04-01T17:20:40;101114.31;;;10.20;100.00
71424;BME280;59240;51.370;-0.486;2023-04-01T17:23:34;101035.28;;;9.67;100.00
71424;BME280;59240;51.370;-0.486;2023-04-01T17:26:32;101130.00;;;10.15;100.00
71424;BME280;59240;51.370;-0.486;2023-04-01T17:32:09;101092.19;;;9.92;100.00
71424;BME280;59240;51.370;-0.486;2023-04-01T17:40:58;101131.06;;;10.01;100.00
71424;BME280;59240;51.370;-0.486;2023-04-01T17:50:18;101117.47;;;9.80;100.00
71424;BME280;59240;51.370;-0.486;2023-04-01T17:56:04;101147.78;;;9.84;99.50
71424;BME280;59240;51.370;-0.486;2023-04-01T18:08:14;101114.31;;;9.57;100.00
71424;BME280;59240;51.370;-0.486;2023-04-01T18:11:20;101194.41;;;10.01;100.00
71424;BME280;59240;51.370;-0.486;2023-04-01T18:14:36;101211.75;;;10.04;100.00
71424;BME280;59240;51.370;-0.486;2023-04-01T18:21:50;101142.19;;;9.46;100.00
71424;BME280;59240;51.370;-0.486;2023-04-01T18:25:26;101222.28;;;9.93;100.00
71424;BME280;59240;51.370;-0.486;2023-04-01T18:31:19;101182.81;;;9.57;100.00
71424;BME280;59240;51.370;-0.486;2023-04-01T18:37:30;101180.22;;;9.56;100.00
71424;BME280;59240;51.370;-0.486;2023-04-01T18:40:19;101163.06;;;9.40;100.00
71424;BME280;59240;51.370;-0.486;2023-04-01T18:59:25;101267.38;;;9.95;100.00
71424;BME280;59240;51.370;-0.486;2023-04-01T19:08:14;101244.31;;;9.63;100.00
71424;BME280;59240;51.370;-0.486;2023-04-01T19:11:32;101289.00;;;9.99;100.00
71424;BME280;59240;51.370;-0.486;2023-04-01T19:14:21;101270.09;;;9.84;100.00
71424;BME280;59240;51.370;-0.486;2023-04-01T19:41:35;101342.00;;;9.93;100.00
71424;BME280;59240;51.370;-0.486;2023-04-01T19:44:38;101350.66;;;9.97;100.00
71424;BME280;59240;51.370;-0.486;2023-04-01T19:50:41;101351.59;;;9.90;100.00
71424;BME280;59240;51.370;-0.486;2023-04-01T19:53:22;101327.56;;;9.63;100.00
71424;BME280;59240;51.370;-0.486;2023-04-01T19:56:16;101370.69;;;9.89;97.41
71424;BME280;59240;51.370;-0.486;2023-04-01T20:04:33;101386.31;;;9.85;97.35
71424;BME280;59240;51.370;-0.486;2023-04-01T20:07:29;101386.34;;;9.84;100.00
71424;BME280;59240;51.370;-0.486;2023-04-01T20:13:28;101353.66;;;9.54;100.00
71424;BME280;59240;51.370;-0.486;2023-04-01T20:19:07;101400.28;;;9.77;100.00
71424;BME280;59240;51.370;-0.486;2023-04-01T20:25:01;101381.31;;;9.64;100.00
71424;BME280;59240;51.370;-0.486;2023-04-01T20:34:11;101401.25;;;9.60;100.00
71424;BME280;59240;51.370;-0.486;2023-04-01T20:46:11;101418.78;;;9.37;100.00
71424;BME280;59240;51.370;-0.486;2023-04-01T20:51:26;101430.06;;;9.33;100.00
71424;BME280;59240;51.370;-0.486;2023-04-01T20:57:06;101487.09;;;9.65;100.00
71424;BME280;59240;51.370;-0.486;2023-04-01T21:00:01;101469.00;;;9.45;100.00
71424;BME280;59240;51.370;-0.486;2023-04-01T21:02:50;101465.53;;;9.46;100.00
71424;BME280;59240;51.370;-0.486;2023-04-01T21:08:49;101470.75;;;9.45;100.00
71424;BME280;59240;51.370;-0.486;2023-04-01T21:20:52;101535.69;;;9.57;100.00
71424;BME280;59240;51.370;-0.486;2023-04-01T21:23:28;101531.38;;;9.51;100.00
71424;BME280;59240;51.370;-0.486;2023-04-01T21:26:23;101541.81;;;9.48;100.00
71424;BME280;59240;51.370;-0.486;2023-04-01T21:29:18;101542.72;;;9.43;100.00
71424;BME280;59240;51.370;-0.486;2023-04-01T21:54:27;101582.66;;;9.29;100.00
71424;BME280;59240;51.370;-0.486;2023-04-01T22:00:32;101566.22;;;9.12;100.00
71424;BME280;59240;51.370;-0.486;2023-04-01T22:06:42;101582.72;;;9.14;100.00
71424;BME280;59240;51.370;-0.486;2023-04-01T22:09:38;101584.44;;;9.15;100.00
71424;BME280;59240;51.370;-0.486;2023-04-01T22:15:59;101536.00;;;8.77;100.00
71424;BME280;59240;51.370;-0.486;2023-04-01T22:18:44;101568.94;;;8.79;100.00
71424;BME280;59240;51.370;-0.486;2023-04-01T22:23:59;101627.78;;;9.13;100.00
71424;BME280;59240;51.370;-0.486;2023-04-01T22:32:12;101562.03;;;8.68;100.00
71424;BME280;59240;51.370;-0.486;2023-04-01T22:34:57;101584.50;;;8.82;100.00
71424;BME280;59240;51.370;-0.486;2023-04-01T22:40:36;101623.47;;;8.97;100.00
71424;BME280;59240;51.370;-0.486;2023-04-01T22:43:11;101628.66;;;8.95;100.00
71424;BME280;59240;51.370;-0.486;2023-04-01T22:45:54;101624.34;;;8.87;100.00
71424;BME280;59240;51.370;-0.486;2023-04-01T22:48:51;101667.63;;;9.09;100.00
71424;BME280;59240;51.370;-0.486;2023-04-01T22:51:37;101662.44;;;9.03;100.00
71424;BME280;59240;51.370;-0.486;2023-04-01T22:54:32;101667.66;;;9.06;100.00
71424;BME280;59240;51.370;-0.486;2023-04-01T22:59:46;101680.63;;;8.97;100.00
71424;BME280;59240;51.370;-0.486;2023-04-01T23:02:29;101622.63;;;8.70;100.00
71424;BME280;59240;51.370;-0.486;2023-04-01T23:05:12;101580.22;;;8.42;100.00
71424;BME280;59240;51.370;-0.486;2023-04-01T23:07:52;101622.63;;;8.43;96.87